sensor_id;sensor_type;location;lat;lon;timestamp;P1;durP1;ratioP1;P2;durP2;ratioP2
43146;SDS011;28752;48.266;7.402;2022-12-16T00:00:36;46.87;;;22.43;;
43146;SDS011;28752;48.266;7.402;2022-12-16T00:03:01;43.97;;;20.87;;
43146;SDS011;28752;48.266;7.402;2022-12-16T00:05:27;42.70;;;21.90;;
43146;SDS011;28752;48.266;7.402;2022-12-16T00:10:19;44.95;;;21.50;;
43146;SDS011;28752;48.266;7.402;2022-12-16T00:12:45;40.22;;;21.83;;
43146;SDS011;28752;48.266;7.402;2022-12-16T00:15:10;44.67;;;23.77;;
43146;SDS011;28752;48.266;7.402;2022-12-16T00:17:36;42.57;;;21.90;;
43146;SDS011;28752;48.266;7.402;2022-12-16T00:20:02;42.27;;;22.13;;
43146;SDS011;28752;48.266;7.402;2022-12-16T00:22:28;41.70;;;21.75;;
43146;SDS011;28752;48.266;7.402;2022-12-16T00:24:53;41.60;;;21.50;;
43146;SDS011;28752;48.266;7.402;2022-12-16T00:27:18;44.43;;;21.80;;
43146;SDS011;28752;48.266;7.402;2022-12-16T00:29:44;41.40;;;21.13;;
43146;SDS011;28752;48.266;7.402;2022-12-16T00:32:09;42.90;;;23.13;;
43146;SDS011;28752;48.266;7.402;2022-12-16T00:34:34;38.40;;;20.00;;
43146;SDS011;28752;48.266;7.402;2022-12-16T00:37:00;38.00;;;21.30;;
43146;SDS011;28752;48.266;7.402;2022-12-16T00:39:25;36.93;;;20.30;;
43146;SDS011;28752;48.266;7.402;2022-12-16T00:41:51;40.93;;;21.00;;
43146;SDS011;28752;48.266;7.402;2022-12-16T00:44:17;36.53;;;20.45;;
43146;SDS011;28752;48.266;7.402;2022-12-16T00:46:43;36.83;;;20.40;;
43146;SDS011;28752;48.266;7.402;2022-12-16T00:49:08;37.23;;;20.13;;
43146;SDS011;28752;48.266;7.402;2022-12-16T00:51:33;39.67;;;19.93;;
43146;SDS011;28752;48.266;7.402;2022-12-16T00:53:59;38.50;;;20.20;;
43146;SDS011;28752;48.266;7.402;2022-12-16T00:56:24;36.50;;;19.53;;
43146;SDS011;28752;48.266;7.402;2022-12-16T00:58:49;38.53;;;20.67;;
43146;SDS011;28752;48.266;7.402;2022-12-16T01:01:15;38.30;;;19.03;;
43146;SDS011;28752;48.266;7.402;2022-12-16T01:03:40;37.63;;;20.60;;
43146;SDS011;28752;48.266;7.402;2022-12-16T01:06:07;41.53;;;21.63;;
43146;SDS011;28752;48.266;7.402;2022-12-16T01:08:33;45.20;;;22.17;;
43146;SDS011;28752;48.266;7.402;2022-12-16T01:10:59;38.60;;;21.47;;
43146;SDS011;28752;48.266;7.402;2022-12-16T01:13:24;38.30;;;19.73;;
43146;SDS011;28752;48.266;7.402;2022-12-16T01:15:50;37.80;;;19.77;;
43146;SDS011;28752;48.266;7.402;2022-12-16T01:18:16;31.00;;;17.33;;
43146;SDS011;28752;48.266;7.402;2022-12-16T01:20:41;32.33;;;17.88;;
43146;SDS011;28752;48.266;7.402;2022-12-16T01:23:07;32.27;;;17.53;;
43146;SDS011;28752;48.266;7.402;2022-12-16T01:25:33;33.70;;;16.95;;
43146;SDS011;28752;48.266;7.402;2022-12-16T01:27:58;29.50;;;16.33;;
43146;SDS011;28752;48.266;7.402;2022-12-16T01:30:24;31.30;;;16.73;;
43146;SDS011;28752;48.266;7.402;2022-12-16T01:32:49;30.33;;;17.40;;
43146;SDS011;28752;48.266;7.402;2022-12-16T01:35:15;33.67;;;16.15;;
43146;SDS011;28752;48.266;7.402;2022-12-16T01:37:41;31.83;;;16.00;;
43146;SDS011;28752;48.266;7.402;2022-12-16T01:40:07;25.40;;;14.67;;
43146;SDS011;28752;48.266;7.402;2022-12-16T01:42:40;28.73;;;15.45;;
43146;SDS011;28752;48.266;7.402;2022-12-16T01:48:06;29.58;;;15.07;;
43146;SDS011;28752;48.266;7.402;2022-12-16T01:50:44;24.17;;;13.30;;
43146;SDS011;28752;48.266;7.402;2022-12-16T01:53:09;24.25;;;12.95;;
43146;SDS011;28752;48.266;7.402;2022-12-16T01:55:40;26.88;;;12.88;;
43146;SDS011;28752;48.266;7.402;2022-12-16T01:58:22;19.52;;;10.55;;
43146;SDS011;28752;48.266;7.402;2022-12-16T02:00:51;21.45;;;12.27;;
43146;SDS011;28752;48.266;7.402;2022-12-16T02:03:17;17.90;;;9.73;;
43146;SDS011;28752;48.266;7.402;2022-12-16T02:05:43;19.88;;;9.65;;
43146;SDS011;28752;48.266;7.402;2022-12-16T02:08:12;17.85;;;9.57;;
43146;SDS011;28752;48.266;7.402;2022-12-16T02:13:32;18.07;;;9.77;;
43146;SDS011;28752;48.266;7.402;2022-12-16T02:16:26;20.17;;;9.35;;
43146;SDS011;28752;48.266;7.402;2022-12-16T02:24:06;21.40;;;10.43;;
43146;SDS011;28752;48.266;7.402;2022-12-16T02:32:13;21.75;;;11.73;;
43146;SDS011;28752;48.266;7.402;2022-12-16T02:37:32;19.63;;;10.05;;
43146;SDS011;28752;48.266;7.402;2022-12-16T02:40:21;21.10;;;10.43;;
43146;SDS011;28752;48.266;7.402;2022-12-16T02:42:53;17.80;;;9.27;;
43146;SDS011;28752;48.266;7.402;2022-12-16T02:45:26;22.95;;;10.55;;
43146;SDS011;28752;48.266;7.402;2022-12-16T02:47:54;21.23;;;11.07;;
43146;SDS011;28752;48.266;7.402;2022-12-16T02:50:21;18.80;;;9.38;;
43146;SDS011;28752;48.266;7.402;2022-12-16T02:52:54;21.00;;;10.18;;
43146;SDS011;28752;48.266;7.402;2022-12-16T02:55:22;18.80;;;10.27;;
43146;SDS011;28752;48.266;7.402;2022-12-16T03:00:19;18.23;;;9.83;;
43146;SDS011;28752;48.266;7.402;2022-12-16T03:02:49;21.45;;;11.43;;
43146;SDS011;28752;48.266;7.402;2022-12-16T03:05:25;20.67;;;10.55;;
43146;SDS011;28752;48.266;7.402;2022-12-16T03:07:57;20.10;;;10.90;;
43146;SDS011;28752;48.266;7.402;2022-12-16T03:10:31;21.40;;;11.35;;
43146;SDS011;28752;48.266;7.402;2022-12-16T03:13:02;20.67;;;11.20;;
43146;SDS011;28752;48.266;7.402;2022-12-16T03:15:31;21.63;;;10.77;;
43146;SDS011;28752;48.266;7.402;2022-12-16T03:17:59;20.17;;;10.70;;
43146;SDS011;28752;48.266;7.402;2022-12-16T03:20:29;20.45;;;10.85;;
43146;SDS011;28752;48.266;7.402;2022-12-16T03:23:00;20.75;;;11.68;;
43146;SDS011;28752;48.266;7.402;2022-12-16T03:25:30;20.05;;;10.75;;
43146;SDS011;28752;48.266;7.402;2022-12-16T03:30:38;21.00;;;11.38;;
43146;SDS011;28752;48.266;7.402;2022-12-16T03:36:14;19.95;;;10.00;;
43146;SDS011;28752;48.266;7.402;2022-12-16T03:38:46;19.58;;;10.35;;
43146;SDS011;28752;48.266;7.402;2022-12-16T03:41:13;21.38;;;11.73;;
43146;SDS011;28752;48.266;7.402;2022-12-16T03:43:41;19.33;;;10.30;;
43146;SDS011;28752;48.266;7.402;2022-12-16T03:46:07;18.92;;;10.07;;
43146;SDS011;28752;48.266;7.402;2022-12-16T03:48:34;16.52;;;8.95;;
43146;SDS011;28752;48.266;7.402;2022-12-16T03:51:00;17.50;;;9.23;;
43146;SDS011;28752;48.266;7.402;2022-12-16T03:53:25;16.10;;;8.52;;
43146;SDS011;28752;48.266;7.402;2022-12-16T03:55:54;17.00;;;8.75;;
43146;SDS011;28752;48.266;7.402;2022-12-16T03:58:19;18.15;;;9.10;;
43146;SDS011;28752;48.266;7.402;2022-12-16T04:00:45;16.30;;;8.20;;
43146;SDS011;28752;48.266;7.402;2022-12-16T04:03:10;15.73;;;8.33;;
43146;SDS011;28752;48.266;7.402;2022-12-16T04:05:37;15.87;;;8.73;;
43146;SDS011;28752;48.266;7.402;2022-12-16T04:08:02;16.58;;;9.23;;
43146;SDS011;28752;48.266;7.402;2022-12-16T04:10:28;13.63;;;7.22;;
43146;SDS011;28752;48.266;7.402;2022-12-16T04:13:13;14.70;;;8.13;;
43146;SDS011;28752;48.266;7.402;2022-12-16T04:15:57;16.83;;;8.65;;
43146;SDS011;28752;48.266;7.402;2022-12-16T04:18:41;16.25;;;8.20;;
43146;SDS011;28752;48.266;7.402;2022-12-16T04:21:25;14.70;;;7.80;;
43146;SDS011;28752;48.266;7.402;2022-12-16T04:24:11;15.07;;;8.23;;
43146;SDS011;28752;48.266;7.402;2022-12-16T04:26:43;14.30;;;7.50;;
43146;SDS011;28752;48.266;7.402;2022-12-16T04:29:27;14.77;;;7.78;;
43146;SDS011;28752;48.266;7.402;2022-12-16T04:31:53;15.13;;;7.20;;
43146;SDS011;28752;48.266;7.402;2022-12-16T04:34:19;14.25;;;7.78;;
43146;SDS011;28752;48.266;7.402;2022-12-16T04:36:53;14.45;;;7.68;;
43146;SDS011;28752;48.266;7.402;2022-12-16T04:39:39;13.93;;;7.47;;
43146;SDS011;28752;48.266;7.402;2022-12-16T04:42:23;14.02;;;7.22;;
43146;SDS011;28752;48.266;7.402;2022-12-16T04:45:07;14.57;;;8.25;;
43146;SDS011;28752;48.266;7.402;2022-12-16T04:47:51;13.98;;;7.57;;
43146;SDS011;28752;48.266;7.402;2022-12-16T04:50:36;15.30;;;7.50;;
43146;SDS011;28752;48.266;7.402;2022-12-16T04:53:20;15.95;;;8.13;;
43146;SDS011;28752;48.266;7.402;2022-12-16T04:56:08;16.13;;;8.30;;
43146;SDS011;28752;48.266;7.402;2022-12-16T04:58:52;14.75;;;8.73;;
43146;SDS011;28752;48.266;7.402;2022-12-16T05:01:36;14.15;;;6.95;;
43146;SDS011;28752;48.266;7.402;2022-12-16T05:04:20;14.32;;;6.95;;
43146;SDS011;28752;48.266;7.402;2022-12-16T05:07:04;14.52;;;7.47;;
43146;SDS011;28752;48.266;7.402;2022-12-16T05:09:48;14.63;;;8.43;;
43146;SDS011;28752;48.266;7.402;2022-12-16T05:12:32;13.48;;;6.95;;
43146;SDS011;28752;48.266;7.402;2022-12-16T05:15:16;14.48;;;7.72;;
43146;SDS011;28752;48.266;7.402;2022-12-16T05:18:06;14.38;;;7.88;;
43146;SDS011;28752;48.266;7.402;2022-12-16T05:20:56;13.57;;;7.38;;
43146;SDS011;28752;48.266;7.402;2022-12-16T05:23:40;12.50;;;6.20;;
43146;SDS011;28752;48.266;7.402;2022-12-16T05:26:24;11.90;;;6.20;;
43146;SDS011;28752;48.266;7.402;2022-12-16T05:29:08;12.55;;;6.95;;
43146;SDS011;28752;48.266;7.402;2022-12-16T05:31:51;30.50;;;13.60;;
43146;SDS011;28752;48.266;7.402;2022-12-16T05:34:35;24.48;;;12.57;;
43146;SDS011;28752;48.266;7.402;2022-12-16T05:37:19;25.20;;;12.85;;
43146;SDS011;28752;48.266;7.402;2022-12-16T05:40:03;31.77;;;16.73;;
43146;SDS011;28752;48.266;7.402;2022-12-16T05:42:48;36.47;;;19.08;;
43146;SDS011;28752;48.266;7.402;2022-12-16T05:45:32;21.35;;;10.13;;
43146;SDS011;28752;48.266;7.402;2022-12-16T05:48:16;21.50;;;10.95;;
43146;SDS011;28752;48.266;7.402;2022-12-16T05:51:00;19.15;;;9.90;;
43146;SDS011;28752;48.266;7.402;2022-12-16T05:53:43;20.42;;;11.15;;
43146;SDS011;28752;48.266;7.402;2022-12-16T05:56:27;24.38;;;12.93;;
43146;SDS011;28752;48.266;7.402;2022-12-16T05:59:11;17.45;;;9.43;;
43146;SDS011;28752;48.266;7.402;2022-12-16T06:01:55;21.50;;;12.82;;
43146;SDS011;28752;48.266;7.402;2022-12-16T06:04:39;29.35;;;16.80;;
43146;SDS011;28752;48.266;7.402;2022-12-16T06:07:23;36.38;;;18.95;;
43146;SDS011;28752;48.266;7.402;2022-12-16T06:10:07;31.33;;;16.88;;
43146;SDS011;28752;48.266;7.402;2022-12-16T06:12:51;27.50;;;14.35;;
43146;SDS011;28752;48.266;7.402;2022-12-16T06:15:35;27.15;;;14.68;;
43146;SDS011;28752;48.266;7.402;2022-12-16T06:18:19;25.77;;;14.13;;
43146;SDS011;28752;48.266;7.402;2022-12-16T06:21:03;27.65;;;15.43;;
43146;SDS011;28752;48.266;7.402;2022-12-16T06:23:47;27.08;;;14.93;;
43146;SDS011;28752;48.266;7.402;2022-12-16T06:26:30;24.67;;;14.23;;
43146;SDS011;28752;48.266;7.402;2022-12-16T06:29:14;19.65;;;10.07;;
43146;SDS011;28752;48.266;7.402;2022-12-16T06:31:58;17.13;;;10.77;;
43146;SDS011;28752;48.266;7.402;2022-12-16T06:34:42;19.30;;;11.68;;
43146;SDS011;28752;48.266;7.402;2022-12-16T06:37:26;19.27;;;11.10;;
43146;SDS011;28752;48.266;7.402;2022-12-16T06:40:10;19.20;;;11.68;;
43146;SDS011;28752;48.266;7.402;2022-12-16T06:42:54;17.33;;;9.57;;
43146;SDS011;28752;48.266;7.402;2022-12-16T06:45:38;16.58;;;8.68;;
43146;SDS011;28752;48.266;7.402;2022-12-16T06:48:22;19.35;;;10.27;;
43146;SDS011;28752;48.266;7.402;2022-12-16T06:51:06;22.92;;;12.45;;
43146;SDS011;28752;48.266;7.402;2022-12-16T06:53:50;20.05;;;11.60;;
43146;SDS011;28752;48.266;7.402;2022-12-16T06:56:34;23.17;;;12.00;;
43146;SDS011;28752;48.266;7.402;2022-12-16T06:59:18;25.42;;;13.43;;
43146;SDS011;28752;48.266;7.402;2022-12-16T07:02:02;24.05;;;12.85;;
43146;SDS011;28752;48.266;7.402;2022-12-16T07:04:46;21.83;;;11.80;;
43146;SDS011;28752;48.266;7.402;2022-12-16T07:07:29;21.73;;;11.77;;
43146;SDS011;28752;48.266;7.402;2022-12-16T07:10:13;21.50;;;12.38;;
43146;SDS011;28752;48.266;7.402;2022-12-16T07:13:00;25.63;;;15.25;;
43146;SDS011;28752;48.266;7.402;2022-12-16T07:15:45;26.13;;;15.32;;
43146;SDS011;28752;48.266;7.402;2022-12-16T07:18:29;28.27;;;16.02;;
43146;SDS011;28752;48.266;7.402;2022-12-16T07:21:13;22.20;;;13.70;;
43146;SDS011;28752;48.266;7.402;2022-12-16T07:23:56;22.10;;;12.52;;
43146;SDS011;28752;48.266;7.402;2022-12-16T07:26:40;24.55;;;13.30;;
43146;SDS011;28752;48.266;7.402;2022-12-16T07:29:24;23.63;;;12.35;;
43146;SDS011;28752;48.266;7.402;2022-12-16T07:32:08;25.20;;;13.93;;
43146;SDS011;28752;48.266;7.402;2022-12-16T07:34:52;26.92;;;14.65;;
43146;SDS011;28752;48.266;7.402;2022-12-16T07:37:36;28.35;;;14.65;;
43146;SDS011;28752;48.266;7.402;2022-12-16T07:40:21;25.67;;;14.27;;
43146;SDS011;28752;48.266;7.402;2022-12-16T07:43:05;28.95;;;15.88;;
43146;SDS011;28752;48.266;7.402;2022-12-16T07:45:49;29.85;;;16.70;;
43146;SDS011;28752;48.266;7.402;2022-12-16T07:48:33;27.00;;;16.05;;
43146;SDS011;28752;48.266;7.402;2022-12-16T07:51:17;29.80;;;16.45;;
43146;SDS011;28752;48.266;7.402;2022-12-16T07:54:00;27.92;;;16.45;;
43146;SDS011;28752;48.266;7.402;2022-12-16T07:56:44;23.05;;;14.43;;
43146;SDS011;28752;48.266;7.402;2022-12-16T07:59:28;23.95;;;13.30;;
43146;SDS011;28752;48.266;7.402;2022-12-16T08:02:12;23.85;;;13.75;;
43146;SDS011;28752;48.266;7.402;2022-12-16T08:04:56;23.65;;;13.18;;
43146;SDS011;28752;48.266;7.402;2022-12-16T08:07:40;23.15;;;12.98;;
43146;SDS011;28752;48.266;7.402;2022-12-16T08:10:25;25.13;;;13.20;;
43146;SDS011;28752;48.266;7.402;2022-12-16T08:13:09;34.63;;;18.10;;
43146;SDS011;28752;48.266;7.402;2022-12-16T08:15:55;28.58;;;17.10;;
43146;SDS011;28752;48.266;7.402;2022-12-16T08:18:40;25.67;;;15.98;;
43146;SDS011;28752;48.266;7.402;2022-12-16T08:21:24;31.65;;;19.48;;
43146;SDS011;28752;48.266;7.402;2022-12-16T08:24:08;32.25;;;19.23;;
43146;SDS011;28752;48.266;7.402;2022-12-16T08:26:51;29.33;;;15.57;;
43146;SDS011;28752;48.266;7.402;2022-12-16T08:29:35;28.52;;;16.48;;
43146;SDS011;28752;48.266;7.402;2022-12-16T08:32:20;28.33;;;15.07;;
43146;SDS011;28752;48.266;7.402;2022-12-16T08:35:04;27.58;;;15.40;;
43146;SDS011;28752;48.266;7.402;2022-12-16T08:37:49;25.38;;;14.90;;
43146;SDS011;28752;48.266;7.402;2022-12-16T08:40:38;24.13;;;13.77;;
43146;SDS011;28752;48.266;7.402;2022-12-16T08:43:23;23.60;;;14.40;;
43146;SDS011;28752;48.266;7.402;2022-12-16T08:46:07;26.55;;;14.90;;
43146;SDS011;28752;48.266;7.402;2022-12-16T08:48:51;27.02;;;14.05;;
43146;SDS011;28752;48.266;7.402;2022-12-16T08:51:34;23.17;;;12.48;;
43146;SDS011;28752;48.266;7.402;2022-12-16T08:54:18;25.40;;;14.48;;
43146;SDS011;28752;48.266;7.402;2022-12-16T08:57:02;26.23;;;14.27;;
43146;SDS011;28752;48.266;7.402;2022-12-16T08:59:46;26.63;;;14.40;;
43146;SDS011;28752;48.266;7.402;2022-12-16T09:02:30;22.80;;;13.18;;
43146;SDS011;28752;48.266;7.402;2022-12-16T09:05:14;27.45;;;15.02;;
43146;SDS011;28752;48.266;7.402;2022-12-16T09:07:58;28.23;;;14.65;;
43146;SDS011;28752;48.266;7.402;2022-12-16T09:10:43;30.95;;;17.48;;
43146;SDS011;28752;48.266;7.402;2022-12-16T09:13:27;27.73;;;14.35;;
43146;SDS011;28752;48.266;7.402;2022-12-16T09:16:11;25.27;;;14.15;;
43146;SDS011;28752;48.266;7.402;2022-12-16T09:18:55;24.63;;;13.93;;
43146;SDS011;28752;48.266;7.402;2022-12-16T09:21:39;24.35;;;12.93;;
43146;SDS011;28752;48.266;7.402;2022-12-16T09:24:23;22.08;;;11.85;;
43146;SDS011;28752;48.266;7.402;2022-12-16T09:27:07;21.15;;;12.27;;
43146;SDS011;28752;48.266;7.402;2022-12-16T09:29:51;22.60;;;13.00;;
43146;SDS011;28752;48.266;7.402;2022-12-16T09:32:39;20.33;;;10.65;;
43146;SDS011;28752;48.266;7.402;2022-12-16T09:35:26;20.95;;;12.05;;
43146;SDS011;28752;48.266;7.402;2022-12-16T09:38:09;24.95;;;12.95;;
43146;SDS011;28752;48.266;7.402;2022-12-16T09:40:53;25.98;;;14.32;;
43146;SDS011;28752;48.266;7.402;2022-12-16T09:55:35;21.05;;;11.82;;
43146;SDS011;28752;48.266;7.402;2022-12-16T09:58:23;23.38;;;14.48;;
43146;SDS011;28752;48.266;7.402;2022-12-16T10:01:10;17.40;;;9.10;;
43146;SDS011;28752;48.266;7.402;2022-12-16T10:03:55;16.00;;;8.52;;
43146;SDS011;28752;48.266;7.402;2022-12-16T10:06:46;21.77;;;12.23;;
43146;SDS011;28752;48.266;7.402;2022-12-16T10:15:49;19.20;;;10.13;;
43146;SDS011;28752;48.266;7.402;2022-12-16T10:24:54;16.25;;;9.43;;
43146;SDS011;28752;48.266;7.402;2022-12-16T10:27:46;22.45;;;12.35;;
43146;SDS011;28752;48.266;7.402;2022-12-16T10:30:32;19.48;;;10.85;;
43146;SDS011;28752;48.266;7.402;2022-12-16T10:33:19;20.75;;;10.10;;
43146;SDS011;28752;48.266;7.402;2022-12-16T10:36:06;22.75;;;12.52;;
43146;SDS011;28752;48.266;7.402;2022-12-16T10:38:57;18.95;;;10.00;;
43146;SDS011;28752;48.266;7.402;2022-12-16T10:41:45;20.25;;;10.45;;
43146;SDS011;28752;48.266;7.402;2022-12-16T10:44:34;19.67;;;10.55;;
43146;SDS011;28752;48.266;7.402;2022-12-16T10:47:23;19.33;;;10.13;;
43146;SDS011;28752;48.266;7.402;2022-12-16T10:50:11;19.73;;;10.32;;
43146;SDS011;28752;48.266;7.402;2022-12-16T10:52:56;18.98;;;9.95;;
43146;SDS011;28752;48.266;7.402;2022-12-16T11:01:34;16.08;;;8.60;;
43146;SDS011;28752;48.266;7.402;2022-12-16T11:04:35;19.35;;;10.95;;
43146;SDS011;28752;48.266;7.402;2022-12-16T11:07:36;18.75;;;9.98;;
43146;SDS011;28752;48.266;7.402;2022-12-16T11:10:35;17.25;;;9.30;;
43146;SDS011;28752;48.266;7.402;2022-12-16T11:13:27;16.33;;;8.40;;
43146;SDS011;28752;48.266;7.402;2022-12-16T11:16:24;15.55;;;7.97;;
43146;SDS011;28752;48.266;7.402;2022-12-16T11:19:20;14.07;;;8.35;;
43146;SDS011;28752;48.266;7.402;2022-12-16T11:22:12;37.75;;;17.58;;
43146;SDS011;28752;48.266;7.402;2022-12-16T11:27:50;17.58;;;9.63;;
43146;SDS011;28752;48.266;7.402;2022-12-16T11:30:34;16.63;;;9.27;;
43146;SDS011;28752;48.266;7.402;2022-12-16T11:36:09;15.70;;;8.48;;
43146;SDS011;28752;48.266;7.402;2022-12-16T11:38:55;15.45;;;7.85;;
43146;SDS011;28752;48.266;7.402;2022-12-16T11:41:40;14.77;;;8.27;;
43146;SDS011;28752;48.266;7.402;2022-12-16T11:44:38;15.15;;;8.52;;
43146;SDS011;28752;48.266;7.402;2022-12-16T11:50:20;15.35;;;8.48;;
43146;SDS011;28752;48.266;7.402;2022-12-16T11:53:11;13.77;;;7.50;;
43146;SDS011;28752;48.266;7.402;2022-12-16T11:56:16;14.68;;;7.57;;
43146;SDS011;28752;48.266;7.402;2022-12-16T11:59:12;17.25;;;8.45;;
43146;SDS011;28752;48.266;7.402;2022-12-16T12:02:01;16.08;;;8.23;;
43146;SDS011;28752;48.266;7.402;2022-12-16T12:04:56;14.52;;;8.40;;
43146;SDS011;28752;48.266;7.402;2022-12-16T12:07:48;16.77;;;7.82;;
43146;SDS011;28752;48.266;7.402;2022-12-16T12:14:45;15.65;;;8.70;;
43146;SDS011;28752;48.266;7.402;2022-12-16T12:21:01;14.93;;;8.15;;
43146;SDS011;28752;48.266;7.402;2022-12-16T12:26:58;17.15;;;9.48;;
43146;SDS011;28752;48.266;7.402;2022-12-16T12:39:41;18.08;;;9.13;;
43146;SDS011;28752;48.266;7.402;2022-12-16T12:42:44;16.45;;;8.70;;
43146;SDS011;28752;48.266;7.402;2022-12-16T12:48:46;17.77;;;9.45;;
43146;SDS011;28752;48.266;7.402;2022-12-16T12:57:41;21.15;;;10.95;;
43146;SDS011;28752;48.266;7.402;2022-12-16T13:00:27;21.35;;;11.43;;
43146;SDS011;28752;48.266;7.402;2022-12-16T13:03:17;23.92;;;12.07;;
43146;SDS011;28752;48.266;7.402;2022-12-16T13:06:14;32.95;;;16.45;;
43146;SDS011;28752;48.266;7.402;2022-12-16T13:18:34;31.38;;;15.20;;
43146;SDS011;28752;48.266;7.402;2022-12-16T13:20:53;19.48;;;9.90;;
43146;SDS011;28752;48.266;7.402;2022-12-16T13:23:40;22.80;;;12.63;;
43146;SDS011;28752;48.266;7.402;2022-12-16T13:26:32;16.75;;;8.95;;
43146;SDS011;28752;48.266;7.402;2022-12-16T13:29:24;21.77;;;12.20;;
43146;SDS011;28752;48.266;7.402;2022-12-16T13:32:20;15.77;;;9.32;;
43146;SDS011;28752;48.266;7.402;2022-12-16T13:40:55;16.55;;;8.70;;
43146;SDS011;28752;48.266;7.402;2022-12-16T13:43:43;15.65;;;8.85;;
43146;SDS011;28752;48.266;7.402;2022-12-16T13:46:42;15.23;;;8.02;;
43146;SDS011;28752;48.266;7.402;2022-12-16T13:49:36;16.77;;;8.15;;
43146;SDS011;28752;48.266;7.402;2022-12-16T14:01:13;17.35;;;9.57;;
43146;SDS011;28752;48.266;7.402;2022-12-16T14:04:03;16.10;;;9.02;;
43146;SDS011;28752;48.266;7.402;2022-12-16T14:06:52;16.95;;;9.60;;
43146;SDS011;28752;48.266;7.402;2022-12-16T14:09:38;20.83;;;10.77;;
43146;SDS011;28752;48.266;7.402;2022-12-16T14:12:37;16.55;;;9.82;;
43146;SDS011;28752;48.266;7.402;2022-12-16T14:21:27;15.88;;;9.35;;
43146;SDS011;28752;48.266;7.402;2022-12-16T14:24:25;18.92;;;10.13;;
43146;SDS011;28752;48.266;7.402;2022-12-16T14:27:18;19.33;;;10.73;;
43146;SDS011;28752;48.266;7.402;2022-12-16T14:30:13;17.13;;;9.80;;
43146;SDS011;28752;48.266;7.402;2022-12-16T14:33:13;24.38;;;14.13;;
43146;SDS011;28752;48.266;7.402;2022-12-16T14:35:57;20.67;;;10.77;;
43146;SDS011;28752;48.266;7.402;2022-12-16T14:38:45;24.75;;;13.25;;
43146;SDS011;28752;48.266;7.402;2022-12-16T14:41:30;23.10;;;12.65;;
43146;SDS011;28752;48.266;7.402;2022-12-16T14:44:15;40.20;;;18.48;;
43146;SDS011;28752;48.266;7.402;2022-12-16T14:47:01;31.35;;;16.45;;
43146;SDS011;28752;48.266;7.402;2022-12-16T14:49:47;23.73;;;13.70;;
43146;SDS011;28752;48.266;7.402;2022-12-16T14:52:33;23.08;;;12.30;;
43146;SDS011;28752;48.266;7.402;2022-12-16T14:55:19;24.10;;;12.13;;
43146;SDS011;28752;48.266;7.402;2022-12-16T14:58:17;21.02;;;11.88;;
43146;SDS011;28752;48.266;7.402;2022-12-16T15:01:13;23.33;;;11.93;;
43146;SDS011;28752;48.266;7.402;2022-12-16T15:04:02;20.88;;;11.43;;
43146;SDS011;28752;48.266;7.402;2022-12-16T15:06:52;20.55;;;11.93;;
43146;SDS011;28752;48.266;7.402;2022-12-16T15:12:27;21.30;;;10.93;;
43146;SDS011;28752;48.266;7.402;2022-12-16T15:15:22;20.48;;;11.13;;
43146;SDS011;28752;48.266;7.402;2022-12-16T15:18:17;21.40;;;12.00;;
43146;SDS011;28752;48.266;7.402;2022-12-16T15:21:05;21.65;;;10.85;;
43146;SDS011;28752;48.266;7.402;2022-12-16T15:23:50;21.20;;;11.32;;
43146;SDS011;28752;48.266;7.402;2022-12-16T15:26:34;22.67;;;12.73;;
43146;SDS011;28752;48.266;7.402;2022-12-16T15:29:29;22.45;;;12.73;;
43146;SDS011;28752;48.266;7.402;2022-12-16T15:38:30;43.78;;;20.50;;
43146;SDS011;28752;48.266;7.402;2022-12-16T15:41:36;45.08;;;21.58;;
43146;SDS011;28752;48.266;7.402;2022-12-16T15:44:20;84.25;;;40.05;;
43146;SDS011;28752;48.266;7.402;2022-12-16T15:47:28;77.28;;;38.00;;
43146;SDS011;28752;48.266;7.402;2022-12-16T15:50:15;54.90;;;28.80;;
43146;SDS011;28752;48.266;7.402;2022-12-16T15:56:53;35.53;;;18.73;;
43146;SDS011;28752;48.266;7.402;2022-12-16T15:59:32;46.67;;;27.42;;
43146;SDS011;28752;48.266;7.402;2022-12-16T16:02:29;48.67;;;27.80;;
43146;SDS011;28752;48.266;7.402;2022-12-16T16:05:21;48.13;;;26.20;;
43146;SDS011;28752;48.266;7.402;2022-12-16T16:08:07;57.10;;;32.35;;
43146;SDS011;28752;48.266;7.402;2022-12-16T16:10:53;61.05;;;34.95;;
43146;SDS011;28752;48.266;7.402;2022-12-16T16:13:37;60.40;;;31.55;;
43146;SDS011;28752;48.266;7.402;2022-12-16T16:16:21;60.72;;;35.95;;
43146;SDS011;28752;48.266;7.402;2022-12-16T16:19:13;58.50;;;33.55;;
43146;SDS011;28752;48.266;7.402;2022-12-16T16:22:04;50.95;;;28.65;;
43146;SDS011;28752;48.266;7.402;2022-12-16T16:24:52;38.65;;;22.35;;
43146;SDS011;28752;48.266;7.402;2022-12-16T16:27:36;36.45;;;20.10;;
43146;SDS011;28752;48.266;7.402;2022-12-16T16:30:19;32.53;;;19.65;;
43146;SDS011;28752;48.266;7.402;2022-12-16T16:33:04;46.58;;;28.05;;
43146;SDS011;28752;48.266;7.402;2022-12-16T16:35:47;28.60;;;17.05;;
43146;SDS011;28752;48.266;7.402;2022-12-16T16:38:31;26.70;;;15.77;;
43146;SDS011;28752;48.266;7.402;2022-12-16T16:41:15;31.48;;;17.20;;
43146;SDS011;28752;48.266;7.402;2022-12-16T16:43:59;17.73;;;9.38;;
43146;SDS011;28752;48.266;7.402;2022-12-16T16:46:44;30.33;;;15.32;;
43146;SDS011;28752;48.266;7.402;2022-12-16T16:49:32;19.30;;;10.70;;
43146;SDS011;28752;48.266;7.402;2022-12-16T16:52:21;28.88;;;15.77;;
43146;SDS011;28752;48.266;7.402;2022-12-16T16:55:06;26.40;;;13.82;;
43146;SDS011;28752;48.266;7.402;2022-12-16T16:57:56;27.30;;;15.73;;
43146;SDS011;28752;48.266;7.402;2022-12-16T17:00:40;27.52;;;15.65;;
43146;SDS011;28752;48.266;7.402;2022-12-16T17:03:23;25.45;;;14.30;;
43146;SDS011;28752;48.266;7.402;2022-12-16T17:06:07;34.08;;;18.95;;
43146;SDS011;28752;48.266;7.402;2022-12-16T17:08:51;37.88;;;18.65;;
43146;SDS011;28752;48.266;7.402;2022-12-16T17:11:36;31.38;;;17.00;;
43146;SDS011;28752;48.266;7.402;2022-12-16T17:14:20;24.77;;;13.27;;
43146;SDS011;28752;48.266;7.402;2022-12-16T17:17:04;29.58;;;15.88;;
43146;SDS011;28752;48.266;7.402;2022-12-16T17:19:49;30.70;;;17.40;;
43146;SDS011;28752;48.266;7.402;2022-12-16T17:22:33;47.03;;;22.75;;
43146;SDS011;28752;48.266;7.402;2022-12-16T17:25:17;38.67;;;19.40;;
43146;SDS011;28752;48.266;7.402;2022-12-16T17:28:02;37.35;;;20.27;;
43146;SDS011;28752;48.266;7.402;2022-12-16T17:30:47;30.67;;;17.33;;
43146;SDS011;28752;48.266;7.402;2022-12-16T17:33:31;35.28;;;21.17;;
43146;SDS011;28752;48.266;7.402;2022-12-16T17:36:15;34.00;;;18.25;;
43146;SDS011;28752;48.266;7.402;2022-12-16T17:38:59;31.38;;;18.70;;
43146;SDS011;28752;48.266;7.402;2022-12-16T17:41:44;32.42;;;18.38;;
43146;SDS011;28752;48.266;7.402;2022-12-16T17:44:28;36.88;;;21.77;;
43146;SDS011;28752;48.266;7.402;2022-12-16T17:47:11;40.75;;;22.45;;
43146;SDS011;28752;48.266;7.402;2022-12-16T17:49:56;37.20;;;19.05;;
43146;SDS011;28752;48.266;7.402;2022-12-16T17:52:40;31.48;;;17.38;;
43146;SDS011;28752;48.266;7.402;2022-12-16T17:55:24;26.25;;;14.40;;
43146;SDS011;28752;48.266;7.402;2022-12-16T17:58:07;23.63;;;12.98;;
43146;SDS011;28752;48.266;7.402;2022-12-16T18:00:53;21.88;;;13.05;;
43146;SDS011;28752;48.266;7.402;2022-12-16T18:03:43;21.02;;;10.85;;
43146;SDS011;28752;48.266;7.402;2022-12-16T18:06:27;24.98;;;12.90;;
43146;SDS011;28752;48.266;7.402;2022-12-16T18:09:11;23.15;;;13.90;;
43146;SDS011;28752;48.266;7.402;2022-12-16T18:11:55;25.00;;;13.65;;